Time;durP1;ratioP1;P1;durP2;ratioP2;P2;SDS_P1;SDS_P2;PMS_P1;PMS_P2;Temp;Humidity;BMP_temperature;BMP_pressure;BME280_temperature;BME280_humidity;BME280_pressure;Samples;Min_cycle;Max_cycle;Signal;HPM_P1;HPM_P2
2023/03/15 02:30:15;;;;;;;1.70;0.10;;;11.90;28.90;;;;;;6195458;22;20396;-77
2023/03/15 02:32:42;;;;;;;1.00;0.20;;;12.00;29.00;;;;;;6242283;22;20668;-77
2023/03/15 02:35:09;;;;;;;0.40;0.00;;;12.00;29.30;;;;;;6243201;23;20421;-77
2023/03/15 02:37:36;;;;;;;0.10;0.00;;;11.90;29.40;;;;;;6240205;22;20369;-77
2023/03/15 02:40:18;;;;;;;0.00;0.00;;;11.90;29.60;;;;;;6243126;23;20711;-77
2023/03/15 02:42:47;;;;;;;0.20;0.00;;;11.90;29.30;;;;;;6242364;22;20731;-79
2023/03/15 02:45:14;;;;;;;0.70;0.00;;;11.90;29.60;;;;;;6243862;23;20369;-77
2023/03/15 02:47:42;;;;;;;0.22;0.00;;;11.90;29.80;;;;;;6242351;22;20369;-77
2023/03/15 02:50:09;;;;;;;0.20;0.10;;;11.80;29.80;;;;;;6245383;22;20455;-77
2023/03/15 02:52:36;;;;;;;0.10;0.03;;;11.80;30.10;;;;;;6242655;22;20703;-77
2023/03/15 02:55:03;;;;;;;0.20;0.10;;;11.70;30.80;;;;;;6242535;23;20423;-77
2023/03/15 02:57:30;;;;;;;0.10;0.00;;;11.60;31.00;;;;;;6241227;22;20422;-77
2023/03/15 02:59:59;;;;;;;0.08;0.00;;;11.50;30.70;;;;;;6243176;23;20695;-77
2023/03/15 03:02:26;;;;;;;0.30;0.00;;;11.50;31.00;;;;;;6242907;23;20818;-77
2023/03/15 03:04:53;;;;;;;0.27;0.00;;;11.40;31.60;;;;;;6242359;22;20444;-77
2023/03/15 03:07:19;;;;;;;0.23;0.00;;;11.40;31.70;;;;;;6243057;23;20921;-77
2023/03/15 03:09:46;;;;;;;0.80;0.10;;;11.30;32.00;;;;;;6241894;22;20376;-77
2023/03/15 03:12:13;;;;;;;0.20;0.00;;;11.20;32.60;;;;;;6244048;23;20460;-77
2023/03/15 03:14:42;;;;;;;0.60;0.00;;;11.10;32.70;;;;;;6242721;22;20444;-78
2023/03/15 03:17:09;;;;;;;0.38;0.10;;;11.00;32.60;;;;;;6244371;23;20751;-77
2023/03/15 03:19:35;;;;;;;0.10;0.00;;;10.90;33.10;;;;;;6241585;22;20384;-77
2023/03/15 03:22:03;;;;;;;0.65;0.10;;;10.80;33.70;;;;;;6245489;22;20423;-77
2023/03/15 03:24:30;;;;;;;0.20;0.10;;;10.70;33.60;;;;;;6243928;23;20373;-77
2023/03/15 03:26:57;;;;;;;0.57;0.00;;;10.70;33.80;;;;;;6242533;23;20687;-77
2023/03/15 03:29:24;;;;;;;0.20;0.00;;;10.60;34.20;;;;;;6244426;23;20367;-77
2023/03/15 03:31:51;;;;;;;0.10;0.10;;;10.60;34.00;;;;;;6217745;23;20699;-77
2023/03/15 03:34:18;;;;;;;1.35;0.10;;;10.50;34.50;;;;;;6218781;23;20361;-77
2023/03/15 03:36:45;;;;;;;0.20;0.03;;;10.40;34.90;;;;;;6216621;23;20440;-77
2023/03/15 03:39:12;;;;;;;0.33;0.03;;;10.40;34.50;;;;;;6218125;23;20700;-77
2023/03/15 03:41:39;;;;;;;0.30;0.00;;;10.30;35.10;;;;;;6217188;23;20448;-78
2023/03/15 03:44:06;;;;;;;0.40;0.10;;;10.30;35.20;;;;;;6218971;23;20369;-78
2023/03/15 03:46:33;;;;;;;0.10;0.00;;;10.30;34.80;;;;;;6218589;23;20380;-77
2023/03/15 03:49:00;;;;;;;0.40;0.00;;;10.30;34.80;;;;;;6216496;23;20373;-77
2023/03/15 03:51:27;;;;;;;0.70;0.10;;;10.30;35.10;;;;;;6218813;23;20365;-80
2023/03/15 03:53:54;;;;;;;0.20;0.00;;;10.30;35.00;;;;;;6214226;23;20427;-80
2023/03/15 03:56:21;;;;;;;0.07;0.00;;;10.30;35.00;;;;;;6216085;23;20869;-80
2023/03/15 03:58:48;;;;;;;0.10;0.05;;;10.30;34.70;;;;;;6213808;23;20743;-79
2023/03/15 04:01:15;;;;;;;0.10;0.00;;;10.40;34.80;;;;;;6215462;23;20380;-79
2023/03/15 04:03:41;;;;;;;0.60;0.00;;;10.50;34.30;;;;;;6215805;23;20446;-79
2023/03/15 04:06:08;;;;;;;0.00;0.00;;;10.60;33.50;;;;;;6216379;23;20397;-79
2023/03/15 04:08:35;;;;;;;0.00;0.00;;;10.60;33.80;;;;;;6217062;23;20377;-79
2023/03/15 04:11:02;;;;;;;0.20;0.00;;;10.70;33.70;;;;;;6215787;23;20356;-80
2023/03/15 04:13:30;;;;;;;0.00;0.00;;;10.80;32.60;;;;;;6243059;23;20411;-80
2023/03/15 04:15:57;;;;;;;0.13;0.08;;;10.80;32.10;;;;;;6216298;23;20433;-79
2023/03/15 04:18:24;;;;;;;0.30;0.00;;;10.80;32.80;;;;;;6216778;23;20369;-80
2023/03/15 04:20:53;;;;;;;0.50;0.30;;;10.80;31.80;;;;;;6215862;23;20444;-80
2023/03/15 04:23:21;;;;;;;1.05;0.10;;;10.80;32.10;;;;;;6216671;23;20387;-80
2023/03/15 04:25:50;;;;;;;0.45;0.08;;;10.80;32.30;;;;;;6215417;22;20395;-80
2023/03/15 04:28:18;;;;;;;0.20;0.05;;;10.80;31.00;;;;;;6217162;23;20695;-80
2023/03/15 04:30:47;;;;;;;0.50;0.00;;;10.80;30.80;;;;;;6242428;22;20933;-80
2023/03/15 04:33:14;;;;;;;0.90;0.10;;;10.90;30.30;;;;;;6241381;23;20367;-80
2023/03/15 04:35:43;;;;;;;0.30;0.10;;;10.90;30.30;;;;;;6241627;23;20427;-80
2023/03/15 04:38:10;;;;;;;0.80;0.03;;;10.80;30.60;;;;;;6241146;22;20375;-80
2023/03/15 04:40:37;;;;;;;0.55;0.00;;;10.80;29.40;;;;;;6241943;23;20369;-80
2023/03/15 04:43:05;;;;;;;0.60;0.10;;;10.80;29.30;;;;;;6240803;22;20451;-80
2023/03/15 04:45:32;;;;;;;0.95;0.00;;;10.90;29.10;;;;;;6241759;23;20373;-80
2023/03/15 04:48:00;;;;;;;0.65;0.10;;;10.90;29.00;;;;;;6240788;22;20389;-80
2023/03/15 04:50:29;;;;;;;0.55;0.00;;;10.90;29.10;;;;;;6241703;23;20362;-80
2023/03/15 04:52:58;;;;;;;0.68;0.00;;;10.80;28.50;;;;;;6242484;22;20431;-79
2023/03/15 04:55:25;;;;;;;0.10;0.00;;;10.80;28.60;;;;;;6243416;22;20373;-80
2023/03/15 04:57:52;;;;;;;0.90;0.03;;;10.80;28.20;;;;;;6240932;22;20924;-80
2023/03/15 05:00:19;;;;;;;1.45;0.13;;;10.80;28.80;;;;;;6243053;22;20699;-80
2023/03/15 05:02:53;;;;;;;0.20;0.10;;;10.70;27.60;;;;;;6241791;23;20858;-80
2023/03/15 05:05:22;;;;;;;0.32;0.00;;;10.80;27.90;;;;;;6241169;22;20361;-81
2023/03/15 05:07:49;;;;;;;0.30;0.00;;;10.80;27.80;;;;;;6242663;22;20403;-80
2023/03/15 05:10:16;;;;;;;0.20;0.00;;;10.80;26.70;;;;;;6240469;22;20456;-80
2023/03/15 05:12:43;;;;;;;0.40;0.08;;;10.80;26.90;;;;;;6241807;23;20369;-80
2023/03/15 05:15:10;;;;;;;1.10;0.10;;;10.80;26.90;;;;;;6240863;22;20369;-81
2023/03/15 05:17:37;;;;;;;0.40;0.20;;;10.70;27.40;;;;;;6242724;22;20706;-80
2023/03/15 05:20:10;;;;;;;0.40;0.10;;;10.60;26.90;;;;;;6240840;22;20715;-80
2023/03/15 05:22:38;;;;;;;0.60;0.20;;;10.50;26.80;;;;;;6240635;23;20381;-80
2023/03/15 05:25:06;;;;;;;0.13;0.00;;;10.60;26.10;;;;;;6240839;22;20677;-80
2023/03/15 05:27:33;;;;;;;0.10;0.00;;;10.60;26.90;;;;;;6242997;22;20695;-80
2023/03/15 05:30:03;;;;;;;2.13;0.10;;;10.60;25.50;;;;;;6239554;22;20372;-80
2023/03/15 05:32:33;;;;;;;0.10;0.00;;;10.60;25.60;;;;;;6241185;23;20381;-80
2023/03/15 05:35:01;;;;;;;0.20;0.03;;;10.70;25.20;;;;;;6240134;22;20383;-80
2023/03/15 05:37:28;;;;;;;0.20;0.10;;;10.70;24.90;;;;;;6241328;23;20371;-80
2023/03/15 05:39:55;;;;;;;0.50;0.00;;;10.70;25.00;;;;;;6242987;22;20512;-80
2023/03/15 05:42:25;;;;;;;0.20;0.10;;;10.70;24.60;;;;;;6242003;22;20386;-80
2023/03/15 05:44:52;;;;;;;0.30;0.00;;;10.70;24.70;;;;;;6241401;23;20373;-79
2023/03/15 05:47:20;;;;;;;0.73;0.00;;;10.70;24.20;;;;;;6239642;22;21518;-80
2023/03/15 05:49:47;;;;;;;0.90;0.10;;;10.70;24.70;;;;;;6243051;22;20389;-80
2023/03/15 05:52:15;;;;;;;0.60;0.30;;;10.70;24.60;;;;;;6239861;22;20369;-80
2023/03/15 05:54:42;;;;;;;0.10;0.00;;;10.70;24.20;;;;;;6240934;23;20400;-80
2023/03/15 05:57:09;;;;;;;0.52;0.10;;;10.60;24.50;;;;;;6239712;22;20401;-81
2023/03/15 05:59:36;;;;;;;0.80;0.10;;;10.60;24.70;;;;;;6242770;22;20615;-80
2023/03/15 06:02:03;;;;;;;0.95;0.10;;;10.60;24.70;;;;;;6241359;22;20369;-79
2023/03/15 06:04:30;;;;;;;0.40;0.15;;;10.50;24.60;;;;;;6240774;23;20834;-80
2023/03/15 06:06:57;;;;;;;0.50;0.10;;;10.40;25.00;;;;;;6240486;23;20746;-80
2023/03/15 06:09:24;;;;;;;0.20;0.10;;;10.50;24.60;;;;;;6240029;22;20385;-79
2023/03/15 06:11:52;;;;;;;0.43;0.20;;;10.50;24.40;;;;;;6240511;23;20707;-80
2023/03/15 06:14:19;;;;;;;0.10;0.10;;;10.50;24.20;;;;;;6238789;22;20377;-79
2023/03/15 06:16:46;;;;;;;1.17;0.20;;;10.50;24.70;;;;;;6240932;23;20423;-79
2023/03/15 06:19:22;;;;;;;0.50;0.03;;;10.50;24.60;;;;;;6237527;22;20419;-80
2023/03/15 06:21:50;;;;;;;0.30;0.10;;;10.50;24.90;;;;;;6239520;23;20392;-80
2023/03/15 06:24:17;;;;;;;0.20;0.03;;;10.50;24.20;;;;;;6238604;22;20377;-80
2023/03/15 06:26:43;;;;;;;0.80;0.10;;;10.50;24.10;;;;;;6240454;23;20369;-80
2023/03/15 06:29:10;;;;;;;0.17;0.10;;;10.50;24.10;;;;;;6239539;22;20381;-80
2023/03/15 06:31:37;;;;;;;1.08;0.10;;;10.50;24.60;;;;;;6241355;22;20365;-80
2023/03/15 06:34:04;;;;;;;0.28;0.10;;;10.50;24.60;;;;;;6242173;22;20431;-79
2023/03/15 06:36:31;;;;;;;1.05;0.10;;;10.50;24.40;;;;;;6241191;22;20392;-80
2023/03/15 06:38:58;;;;;;;0.50;0.10;;;10.50;24.70;;;;;;6240974;23;20710;-80
2023/03/15 06:41:25;;;;;;;0.40;0.17;;;10.50;24.40;;;;;;6239882;22;20377;-80
2023/03/15 06:43:52;;;;;;;0.10;0.00;;;10.50;24.70;;;;;;6241670;22;20501;-81
2023/03/15 06:46:19;;;;;;;0.40;0.20;;;10.50;24.60;;;;;;6239508;22;20389;-80
2023/03/15 06:48:46;;;;;;;0.57;0.08;;;10.50;24.60;;;;;;6239884;23;20400;-80
2023/03/15 06:51:13;;;;;;;0.35;0.10;;;10.60;24.10;;;;;;6241103;22;20396;-79
2023/03/15 06:53:40;;;;;;;0.50;0.10;;;10.60;23.60;;;;;;6243576;23;20365;-81
2023/03/15 06:56:07;;;;;;;0.80;0.10;;;10.60;23.70;;;;;;6234554;22;20667;-81
2023/03/15 06:58:34;;;;;;;0.15;0.10;;;10.70;23.70;;;;;;6239545;23;20373;-80
2023/03/15 07:01:01;;;;;;;0.50;0.20;;;10.70;23.50;;;;;;6238607;22;20839;-81
2023/03/15 07:03:28;;;;;;;0.10;0.00;;;10.80;23.40;;;;;;6240152;23;20419;-81
2023/03/15 07:05:55;;;;;;;0.80;0.10;;;10.80;23.80;;;;;;6241423;22;20452;-81
2023/03/15 07:08:23;;;;;;;0.30;0.10;;;10.80;23.20;;;;;;6238664;22;20404;-82
2023/03/15 07:10:51;;;;;;;1.30;0.10;;;10.90;22.90;;;;;;6240411;23;20943;-81
2023/03/15 07:13:18;;;;;;;0.28;0.10;;;10.90;23.30;;;;;;6240129;22;20389;-82
2023/03/15 07:15:49;;;;;;;0.20;0.10;;;11.00;22.90;;;;;;6241574;22;20373;-81
2023/03/15 07:18:16;;;;;;;0.60;0.10;;;11.10;22.40;;;;;;6239945;22;20376;-81
2023/03/15 07:20:43;;;;;;;0.68;0.00;;;11.20;22.90;;;;;;6241824;22;20369;-81
2023/03/15 07:23:10;;;;;;;0.25;0.08;;;11.20;22.20;;;;;;6239805;22;20372;-81
2023/03/15 07:25:37;;;;;;;0.15;0.00;;;11.20;22.90;;;;;;6240387;23;20831;-81
2023/03/15 07:28:21;;;;;;;0.90;0.10;;;11.30;22.40;;;;;;6238567;22;20365;-82
2023/03/15 07:30:53;;;;;;;0.60;0.10;;;11.50;22.30;;;;;;6241683;22;20684;-81
2023/03/15 07:33:23;;;;;;;0.40;0.00;;;11.70;21.60;;;;;;6238984;22;20380;-81
2023/03/15 07:35:52;;;;;;;0.40;0.10;;;11.80;21.70;;;;;;6242007;22;20373;-82
2023/03/15 07:38:24;;;;;;;0.10;0.00;;;12.00;21.10;;;;;;6241291;22;20436;-81
2023/03/15 07:40:51;;;;;;;0.22;0.10;;;12.00;22.00;;;;;;6242441;23;20385;-82
2023/03/15 07:43:18;;;;;;;1.10;0.10;;;12.10;21.30;;;;;;6241337;22;20428;-81
2023/03/15 07:45:46;;;;;;;0.40;0.00;;;12.20;20.90;;;;;;6242401;23;20369;-81
2023/03/15 07:48:13;;;;;;;0.20;0.10;;;12.30;21.30;;;;;;6241594;22;20897;-81
2023/03/15 07:50:40;;;;;;;0.90;0.10;;;12.40;20.80;;;;;;6241663;23;21016;-81
2023/03/15 07:53:07;;;;;;;0.30;0.10;;;12.40;21.30;;;;;;6239936;22;20373;-80
2023/03/15 07:55:34;;;;;;;1.30;0.10;;;12.50;21.20;;;;;;6243122;22;20419;-81
2023/03/15 07:58:01;;;;;;;0.70;0.10;;;12.60;20.40;;;;;;6242107;23;20368;-81
2023/03/15 08:00:28;;;;;;;0.20;0.00;;;12.70;20.50;;;;;;6242189;22;20361;-79
2023/03/15 08:02:56;;;;;;;0.33;0.20;;;12.80;20.60;;;;;;6241237;23;20730;-81
2023/03/15 08:05:23;;;;;;;0.60;0.10;;;12.90;20.90;;;;;;6241060;22;20377;-81
2023/03/15 08:07:53;;;;;;;0.30;0.00;;;13.10;20.50;;;;;;6242074;23;20472;-81
2023/03/15 08:10:20;;;;;;;0.10;0.10;;;13.20;20.40;;;;;;6241041;22;20379;-81
2023/03/15 08:12:47;;;;;;;0.38;0.10;;;13.30;21.40;;;;;;6242568;22;20377;-81
2023/03/15 08:15:14;;;;;;;0.13;0.08;;;13.40;20.90;;;;;;6240897;22;20376;-81
2023/03/15 08:17:42;;;;;;;0.40;0.20;;;13.50;20.30;;;;;;6241721;23;20377;-81
2023/03/15 08:20:10;;;;;;;0.80;0.20;;;13.60;20.70;;;;;;6241406;22;20392;-80
2023/03/15 08:22:37;;;;;;;0.38;0.10;;;13.70;20.30;;;;;;6242360;23;20400;-79
2023/03/15 08:25:05;;;;;;;0.20;0.10;;;13.80;20.90;;;;;;6243293;22;20423;-80
2023/03/15 08:27:32;;;;;;;0.13;0.00;;;14.00;19.70;;;;;;6241413;22;20396;-80
2023/03/15 08:29:59;;;;;;;0.60;0.10;;;14.10;20.10;;;;;;6240902;23;20426;-82
2023/03/15 08:32:26;;;;;;;0.20;0.00;;;14.20;19.90;;;;;;6240246;22;20523;-82
2023/03/15 08:34:53;;;;;;;0.53;0.10;;;14.30;19.60;;;;;;6241395;23;20368;-82
2023/03/15 08:37:20;;;;;;;0.20;0.10;;;14.40;20.30;;;;;;6240407;22;20526;-80
2023/03/15 08:39:46;;;;;;;0.20;0.03;;;14.50;19.40;;;;;;6242676;22;20373;-82
2023/03/15 08:42:13;;;;;;;0.20;0.10;;;14.60;19.50;;;;;;6240864;22;20427;-81
2023/03/15 08:44:40;;;;;;;0.50;0.10;;;14.70;18.40;;;;;;6240779;23;20400;-82
2023/03/15 08:47:07;;;;;;;0.43;0.10;;;14.70;19.30;;;;;;6240819;23;20372;-81
2023/03/15 08:49:34;;;;;;;0.90;0.20;;;14.80;18.90;;;;;;6240560;22;20388;-82
2023/03/15 08:52:01;;;;;;;0.50;0.10;;;14.80;19.70;;;;;;6242256;23;20373;-82
2023/03/15 08:54:28;;;;;;;0.60;0.10;;;15.00;18.90;;;;;;6240987;22;20365;-82
2023/03/15 08:56:55;;;;;;;0.20;0.10;;;15.10;19.50;;;;;;6242014;23;20669;-81
2023/03/15 08:59:22;;;;;;;0.17;0.10;;;15.20;18.90;;;;;;6239357;22;20749;-82
2023/03/15 09:01:59;;;;;;;0.05;0.00;;;15.30;18.20;;;;;;6240524;23;20392;-82
2023/03/15 09:04:26;;;;;;;0.10;0.08;;;15.40;18.50;;;;;;6239767;22;20411;-82
2023/03/15 09:06:53;;;;;;;0.30;0.10;;;15.40;19.00;;;;;;6242199;22;20372;-82
2023/03/15 09:09:20;;;;;;;1.20;0.10;;;15.40;19.20;;;;;;6240540;22;20361;-81
2023/03/15 09:11:46;;;;;;;0.47;0.10;;;15.60;18.40;;;;;;6239823;23;20695;-81
2023/03/15 09:14:13;;;;;;;1.42;0.50;;;15.70;20.10;;;;;;6241737;22;20427;-82
2023/03/15 09:16:40;;;;;;;0.38;0.20;;;15.80;18.80;;;;;;6238763;23;20373;-82
2023/03/15 09:19:08;;;;;;;1.85;0.20;;;15.80;22.10;;;;;;6240978;23;20395;-82
2023/03/15 09:21:34;;;;;;;0.47;0.10;;;15.90;20.60;;;;;;6240284;22;20930;-82
2023/03/15 09:24:01;;;;;;;0.47;0.10;;;16.10;18.70;;;;;;6240172;23;20443;-83
2023/03/15 09:26:28;;;;;;;0.30;0.10;;;16.10;19.20;;;;;;6240245;22;20373;-81
2023/03/15 09:28:55;;;;;;;0.20;0.10;;;16.10;20.80;;;;;;6241478;23;20388;-81
2023/03/15 09:31:23;;;;;;;0.60;0.10;;;16.10;21.10;;;;;;6241491;22;20435;-82
2023/03/15 09:33:50;;;;;;;0.93;0.10;;;16.20;22.60;;;;;;6242932;22;20373;-82
2023/03/15 09:36:17;;;;;;;0.43;0.10;;;16.10;24.40;;;;;;6239279;22;20365;-81
2023/03/15 09:38:46;;;;;;;0.75;0.10;;;16.00;25.30;;;;;;6241166;23;20391;-79
2023/03/15 09:41:36;;;;;;;0.30;0.10;;;16.10;25.50;;;;;;6242240;22;20369;-80
2023/03/15 09:44:21;;;;;;;0.95;0.10;;;16.10;23.40;;;;;;6240955;23;20456;-81
2023/03/15 09:47:03;;;;;;;0.10;0.00;;;16.20;24.30;;;;;;6240611;23;20361;-81
2023/03/15 09:49:39;;;;;;;0.05;0.00;;;16.30;24.30;;;;;;6240484;22;20448;-82
2023/03/15 09:52:30;;;;;;;0.80;0.10;;;16.20;23.70;;;;;;6241002;23;20400;-83
2023/03/15 09:55:04;;;;;;;0.08;0.00;;;16.10;21.90;;;;;;6237348;22;20368;-82
2023/03/15 09:57:45;;;;;;;0.10;0.00;;;16.00;24.00;;;;;;6242676;22;20696;-82
2023/03/15 10:00:16;;;;;;;0.17;0.10;;;15.90;23.40;;;;;;6239356;23;20381;-82
2023/03/15 10:02:59;;;;;;;0.22;0.10;;;16.00;23.50;;;;;;6242037;22;20361;-81
2023/03/15 10:05:48;;;;;;;0.30;0.10;;;15.70;24.40;;;;;;6240444;22;20388;-82
2023/03/15 10:08:17;;;;;;;0.20;0.10;;;15.80;23.90;;;;;;6239087;22;20396;-82
2023/03/15 10:11:36;;;;;;;0.60;0.10;;;15.80;24.40;;;;;;6241405;22;20443;-81
2023/03/15 10:14:34;;;;;;;0.50;0.28;;;16.00;24.80;;;;;;6159610;22;20445;-81
2023/03/15 10:17:14;;;;;;;0.17;0.10;;;16.10;24.10;;;;;;6232570;22;20435;-81
2023/03/15 10:19:57;;;;;;;0.05;0.05;;;16.00;25.50;;;;;;6242044;22;20845;-81
2023/03/15 10:23:04;;;;;;;0.50;0.10;;;16.00;24.60;;;;;;6240471;23;20373;-82
2023/03/15 10:25:32;;;;;;;0.10;0.10;;;16.10;24.50;;;;;;6239671;23;20365;-81
2023/03/15 10:28:01;;;;;;;0.20;0.10;;;16.10;24.50;;;;;;6241241;23;20384;-82
2023/03/15 10:30:31;;;;;;;0.35;0.08;;;16.10;24.10;;;;;;6239948;22;20365;-82
2023/03/15 10:33:00;;;;;;;0.10;0.00;;;16.00;24.20;;;;;;6241007;23;20416;-81
2023/03/15 10:35:27;;;;;;;0.10;0.00;;;15.80;24.10;;;;;;6239506;22;20672;-81
2023/03/15 10:37:54;;;;;;;0.60;0.10;;;15.80;24.00;;;;;;6242003;22;20392;-81
2023/03/15 10:40:45;;;;;;;0.77;0.10;;;15.60;23.40;;;;;;6239731;22;20380;-80
2023/03/15 10:43:26;;;;;;;0.63;0.32;;;15.50;24.50;;;;;;6239422;22;20442;-80
2023/03/15 10:46:11;;;;;;;1.55;0.30;;;15.50;23.80;;;;;;6240382;23;20401;-80
2023/03/15 10:48:50;;;;;;;0.47;0.20;;;15.60;24.60;;;;;;6240904;22;20373;-80
2023/03/15 10:51:31;;;;;;;0.60;0.30;;;15.80;25.20;;;;;;6239213;22;20435;-80
2023/03/15 10:54:06;;;;;;;3.00;2.35;;;15.80;23.50;;;;;;6240217;23;20378;-80
2023/03/15 10:56:46;;;;;;;0.98;0.73;;;15.70;24.00;;;;;;6241176;22;20494;-80
2023/03/15 10:59:25;;;;;;;0.22;0.10;;;15.60;23.70;;;;;;6240129;23;20754;-80
2023/03/15 11:02:06;;;;;;;1.00;0.52;;;15.70;24.80;;;;;;6239395;22;20432;-81
2023/03/15 11:04:33;;;;;;;0.50;0.30;;;15.80;24.20;;;;;;6241123;22;20377;-81
2023/03/15 11:07:02;;;;;;;0.20;0.10;;;15.90;23.70;;;;;;6241749;22;20381;-80
2023/03/15 11:09:44;;;;;;;0.20;0.10;;;16.00;23.30;;;;;;6239750;22;20400;-80
2023/03/15 11:12:25;;;;;;;0.17;0.10;;;16.10;23.80;;;;;;6240173;23;20846;-80
2023/03/15 11:15:12;;;;;;;0.00;0.00;;;16.10;23.60;;;;;;6239551;22;20673;-81
2023/03/15 11:17:45;;;;;;;0.05;0.00;;;16.10;24.10;;;;;;6238754;22;20457;-80
2023/03/15 11:20:38;;;;;;;0.20;0.10;;;16.40;24.90;;;;;;6241377;22;20397;-80
2023/03/15 11:23:19;;;;;;;0.00;0.00;;;16.50;24.40;;;;;;6240191;23;20439;-81
2023/03/15 11:25:46;;;;;;;0.40;0.10;;;16.40;23.40;;;;;;6237830;22;20447;-80
2023/03/15 11:28:19;;;;;;;8.00;4.10;;;16.30;24.20;;;;;;6239670;23;20615;-81
2023/03/15 11:30:47;;;;;;;2.17;0.80;;;16.30;24.00;;;;;;6238699;22;20427;-80
2023/03/15 11:34:04;;;;;;;0.17;0.10;;;16.40;25.30;;;;;;6240375;23;20759;-80
2023/03/15 11:36:35;;;;;;;0.40;0.10;;;16.50;24.80;;;;;;6212857;23;20443;-80
2023/03/15 11:39:05;;;;;;;0.20;0.10;;;16.70;24.20;;;;;;6239784;22;20377;-81
2023/03/15 11:41:44;;;;;;;1.20;0.20;;;16.70;23.60;;;;;;6239077;23;20369;-81
2023/03/15 11:44:35;;;;;;;0.43;0.20;;;16.60;23.30;;;;;;6238969;22;20377;-80
2023/03/15 11:47:09;;;;;;;0.22;0.13;;;16.70;23.00;;;;;;6240468;23;20373;-80
2023/03/15 11:49:52;;;;;;;0.43;0.08;;;16.60;24.70;;;;;;6239786;22;20357;-81
2023/03/15 11:52:28;;;;;;;0.10;0.03;;;16.30;23.10;;;;;;6240248;22;20372;-81
2023/03/15 11:54:58;;;;;;;0.20;0.10;;;16.50;24.50;;;;;;6240261;23;20431;-80
2023/03/15 11:57:28;;;;;;;0.35;0.00;;;16.70;25.50;;;;;;6240127;22;20392;-81
2023/03/15 11:59:56;;;;;;;0.25;0.00;;;16.70;24.30;;;;;;6240173;23;20424;-81
2023/03/15 12:02:25;;;;;;;0.10;0.00;;;16.60;24.20;;;;;;6213877;22;20839;-80
2023/03/15 12:04:53;;;;;;;0.70;0.10;;;16.80;25.70;;;;;;6241652;22;20392;-81
2023/03/15 12:07:23;;;;;;;0.13;0.10;;;16.80;25.10;;;;;;6238912;22;20364;-81
2023/03/15 12:09:55;;;;;;;0.70;0.03;;;16.90;23.80;;;;;;6241269;22;20400;-81
2023/03/15 12:12:25;;;;;;;0.15;0.00;;;17.00;24.60;;;;;;6240539;22;20381;-81
2023/03/15 12:15:14;;;;;;;0.40;0.00;;;17.00;23.40;;;;;;6240222;23;20431;-80
2023/03/15 12:17:55;;;;;;;0.70;0.10;;;17.10;23.00;;;;;;6239071;23;20464;-80
2023/03/15 12:20:41;;;;;;;0.40;0.03;;;17.00;23.80;;;;;;6239062;22;20365;-81
2023/03/15 12:23:17;;;;;;;1.00;0.10;;;16.50;23.10;;;;;;6241156;23;20369;-81
2023/03/15 12:26:02;;;;;;;0.40;0.20;;;16.60;23.70;;;;;;6241664;22;20556;-81
2023/03/15 12:28:53;;;;;;;0.10;0.10;;;16.70;23.50;;;;;;6240924;22;20744;-80
2023/03/15 12:31:21;;;;;;;0.10;0.00;;;16.60;23.40;;;;;;6220462;22;20502;-80
2023/03/15 12:33:57;;;;;;;0.40;0.17;;;16.70;23.40;;;;;;6241608;23;20369;-80
2023/03/15 12:36:37;;;;;;;0.20;0.10;;;16.90;23.00;;;;;;6240853;22;20373;-80
2023/03/15 12:39:16;;;;;;;0.35;0.10;;;17.00;24.30;;;;;;6241572;23;20377;-81
2023/03/15 12:41:47;;;;;;;0.50;0.10;;;17.00;23.90;;;;;;6242047;22;20375;-81
2023/03/15 12:44:38;;;;;;;0.30;0.10;;;17.00;22.30;;;;;;6242027;23;20365;-81
2023/03/15 12:47:10;;;;;;;0.10;0.05;;;16.90;23.40;;;;;;6225766;22;20361;-81
2023/03/15 12:49:41;;;;;;;0.68;0.10;;;16.70;22.70;;;;;;6241796;23;20424;-81
2023/03/15 12:52:12;;;;;;;0.03;0.00;;;16.80;23.30;;;;;;6240765;22;20364;-81
2023/03/15 12:54:50;;;;;;;0.20;0.10;;;16.90;23.80;;;;;;6241469;23;20452;-79
2023/03/15 12:57:27;;;;;;;0.52;0.10;;;17.10;23.10;;;;;;6240978;23;20361;-81
2023/03/15 12:59:58;;;;;;;0.20;0.10;;;17.50;24.00;;;;;;6240924;22;20357;-81
2023/03/15 13:02:31;;;;;;;0.17;0.00;;;17.70;23.50;;;;;;6241727;23;20699;-82
2023/03/15 13:05:09;;;;;;;0.10;0.10;;;17.70;22.90;;;;;;6242337;22;20381;-82
2023/03/15 13:07:52;;;;;;;0.45;0.00;;;17.50;22.70;;;;;;6240490;23;20380;-82
2023/03/15 13:10:31;;;;;;;1.60;0.10;;;17.40;22.30;;;;;;6240801;23;20365;-81
2023/03/15 13:13:32;;;;;;;0.10;0.00;;;17.20;22.80;;;;;;6240092;22;20846;-81
2023/03/15 13:16:14;;;;;;;0.32;0.10;;;17.20;22.70;;;;;;6240933;22;20448;-81
2023/03/15 13:19:09;;;;;;;2.57;0.03;;;17.40;23.50;;;;;;6241536;23;20377;-81
2023/03/15 13:21:46;;;;;;;0.05;0.00;;;17.60;23.60;;;;;;6214306;22;20369;-80
2023/03/15 13:24:22;;;;;;;0.35;0.00;;;17.80;22.30;;;;;;6240277;22;20369;-81
2023/03/15 13:27:12;;;;;;;0.25;0.10;;;17.50;22.20;;;;;;6241022;23;20377;-81
2023/03/15 13:29:39;;;;;;;0.50;0.00;;;17.30;22.40;;;;;;6240398;23;20703;-81
2023/03/15 13:32:12;;;;;;;0.30;0.00;;;17.10;23.00;;;;;;6241225;23;20373;-81
2023/03/15 13:34:41;;;;;;;0.00;0.00;;;17.30;23.50;;;;;;6240258;22;20381;-81
2023/03/15 13:37:27;;;;;;;1.10;0.05;;;17.50;23.80;;;;;;6238731;23;20373;-80
2023/03/15 13:39:59;;;;;;;0.40;0.00;;;17.60;23.10;;;;;;6240907;22;20369;-81
2023/03/15 13:42:26;;;;;;;0.20;0.00;;;17.80;23.60;;;;;;6240924;23;20372;-81
2023/03/15 13:45:08;;;;;;;0.15;0.00;;;17.80;22.10;;;;;;6240739;22;20726;-80
2023/03/15 13:47:35;;;;;;;0.47;0.10;;;18.00;22.80;;;;;;6241500;22;20403;-80
2023/03/15 13:50:04;;;;;;;0.13;0.10;;;18.00;22.00;;;;;;6240959;23;20361;-81
2023/03/15 13:52:31;;;;;;;0.10;0.05;;;18.00;23.20;;;;;;6242663;22;20365;-81
2023/03/15 13:54:59;;;;;;;0.17;0.17;;;17.80;22.00;;;;;;6242414;22;20357;-81
2023/03/15 13:57:26;;;;;;;0.37;0.10;;;17.70;21.90;;;;;;6241376;23;20365;-81
2023/03/15 14:00:10;;;;;;;0.17;0.00;;;17.50;22.40;;;;;;6240735;22;20369;-81
2023/03/15 14:02:50;;;;;;;0.10;0.00;;;17.50;22.70;;;;;;6241641;22;20369;-80
2023/03/15 14:05:29;;;;;;;0.30;0.00;;;17.30;22.00;;;;;;6240576;23;20786;-81
2023/03/15 14:08:06;;;;;;;0.30;0.00;;;17.50;24.00;;;;;;6240240;22;20834;-81
2023/03/15 14:10:38;;;;;;;0.40;0.10;;;17.70;22.70;;;;;;6240630;23;20364;-80
2023/03/15 14:13:26;;;;;;;0.30;0.00;;;17.80;22.50;;;;;;6240816;22;20690;-80
2023/03/15 14:16:13;;;;;;;0.45;0.10;;;17.80;22.00;;;;;;6241684;22;20419;-81
2023/03/15 14:18:41;;;;;;;1.17;0.10;;;17.40;22.40;;;;;;6240437;23;20404;-81
2023/03/15 14:21:13;;;;;;;0.50;0.10;;;17.30;22.80;;;;;;6240089;22;20423;-81
2023/03/15 14:23:44;;;;;;;0.00;0.00;;;17.10;22.80;;;;;;6240949;23;20448;-81
2023/03/15 14:26:26;;;;;;;0.57;0.20;;;17.20;23.10;;;;;;6239844;22;20399;-81
2023/03/15 14:28:59;;;;;;;0.32;0.00;;;17.40;22.90;;;;;;6237926;22;20377;-81
2023/03/15 14:31:33;;;;;;;0.90;0.10;;;17.30;23.40;;;;;;6241844;22;20869;-81
2023/03/15 14:34:08;;;;;;;0.10;0.00;;;17.50;22.40;;;;;;6241013;22;20373;-81
2023/03/15 14:36:42;;;;;;;0.30;0.10;;;17.50;22.90;;;;;;6240779;23;20375;-81
2023/03/15 14:39:28;;;;;;;0.38;0.00;;;17.40;23.30;;;;;;6239497;22;20734;-81
2023/03/15 14:41:55;;;;;;;0.30;0.10;;;17.50;23.00;;;;;;6237803;22;20415;-80
2023/03/15 14:44:22;;;;;;;0.25;0.10;;;17.50;22.80;;;;;;6240873;23;20392;-81
2023/03/15 14:46:49;;;;;;;0.25;0.10;;;17.50;22.70;;;;;;6239526;22;20455;-80
2023/03/15 14:49:22;;;;;;;0.60;0.17;;;17.50;22.60;;;;;;6240732;23;20371;-80
2023/03/15 14:51:55;;;;;;;0.10;0.08;;;17.20;22.50;;;;;;6239491;22;20431;-80
2023/03/15 14:54:23;;;;;;;0.10;0.00;;;17.10;22.10;;;;;;6242248;22;20385;-80
2023/03/15 14:56:50;;;;;;;0.20;0.03;;;17.20;23.00;;;;;;6239134;22;20395;-80
2023/03/15 14:59:20;;;;;;;0.20;0.08;;;17.30;22.50;;;;;;6240825;23;20373;-81
2023/03/15 15:01:53;;;;;;;0.10;0.00;;;17.40;23.60;;;;;;6239723;23;20376;-80
2023/03/15 15:04:21;;;;;;;0.55;0.10;;;17.40;22.70;;;;;;6238261;22;20400;-81
2023/03/15 15:06:49;;;;;;;0.63;0.10;;;17.20;23.30;;;;;;6239979;23;20408;-80
2023/03/15 15:09:23;;;;;;;0.50;0.00;;;17.00;22.90;;;;;;6239427;22;20381;-81
2023/03/15 15:11:51;;;;;;;0.20;0.10;;;16.80;23.40;;;;;;6240327;23;20377;-80
2023/03/15 15:14:20;;;;;;;0.15;0.10;;;16.70;23.00;;;;;;6239178;22;20385;-82
2023/03/15 15:16:48;;;;;;;0.10;0.00;;;16.60;23.70;;;;;;6240302;23;20369;-81
2023/03/15 15:19:15;;;;;;;0.20;0.00;;;16.70;23.80;;;;;;6238864;22;20373;-80
2023/03/15 15:21:43;;;;;;;0.40;0.10;;;16.80;23.80;;;;;;6242118;22;20688;-81
2023/03/15 15:24:15;;;;;;;0.10;0.10;;;16.90;23.80;;;;;;6238737;22;20373;-81
2023/03/15 15:26:43;;;;;;;0.70;0.10;;;17.10;23.80;;;;;;6239557;23;20820;-81
2023/03/15 15:29:13;;;;;;;0.20;0.10;;;17.10;23.00;;;;;;6238207;22;20369;-80
2023/03/15 15:31:40;;;;;;;0.30;0.10;;;17.20;23.70;;;;;;6241221;22;20430;-80
2023/03/15 15:34:08;;;;;;;1.13;0.10;;;17.20;22.80;;;;;;6214511;22;20379;-81
2023/03/15 15:36:41;;;;;;;0.50;0.10;;;17.30;23.50;;;;;;6241558;22;20431;-80
2023/03/15 15:39:21;;;;;;;0.90;0.10;;;17.50;22.90;;;;;;6239309;22;20747;-80